Main page
METAR-TAF:

METAR-TAF

Airports :

Sardar Vallabhbhai Patel International Airport

Ahmedabad, India

latitude: 23-04N, longitude: 072-38E, elevation: 55 m

Current weather observation

The report was made 51 minutes ago, at 00:30 UTC
Wind 5 kt from the Northwest
Temperature 29°C
Humidity 40%
Pressure 1009 hPa
Visibility: 4000 m
smoke

METAR: VAAH 240030Z 31005KT 4000 FU NSC 29/14 Q1009 TEMPO 3000

Time: 06:51 (01:21 UTC)

Forecast

The report was made 2 hours and 21 minutes ago, at 23:00 UTC
Forecast valid from 24 at 00 UTC to 24 at 09 UTC
Wind 6 kt from the Northwest
Visibility: 4000 m
smoke
Becoming
from 24 at 01 UTC to 24 at 03 UTC
Visibility: 3000 m
smoke
Becoming
from 24 at 04 UTC to 24 at 06 UTC
Visibility: 6000 m

TAF: VAAH 232300Z 2400/2409 32006KT 4000 FU NSC BECMG 2401/2403 3000 FU BECMG 2404/2406 6000

Weather observations and forecasts of more than 4000 airports (METAR and TAF reports).

The available stations are represented by yellow and red dots on the map.

Hover mouse over dot to see the name of the station.

Then click to see weather observations and forecasts.

To change the map : click on the green buttons with a black cross to zoom in, on the green button with a dash to zoom out, or on the green arrows for adjacent maps.


METAR-TAF: